Time;durP1;ratioP1;P1;durP2;ratioP2;P2;SDS_P1;SDS_P2;PMS_P1;PMS_P2;Temp;Humidity;BMP_temperature;BMP_pressure;BME280_temperature;BME280_humidity;BME280_pressure;Samples;Min_cycle;Max_cycle;Signal;HPM_P1;HPM_P2
2022/11/07 00:00:41;;;;;;;4.57;3.33;;;9.20;99.90;;;;;;6132667;19;19922;-71
2022/11/07 00:02:45;;;;;;;6.40;3.20;;;9.70;99.90;;;;;;6127843;19;21743;-70
2022/11/07 00:04:49;;;;;;;6.53;2.78;;;9.50;99.90;;;;;;6133768;19;19922;-71
2022/11/07 00:06:53;;;;;;;6.18;2.78;;;9.60;99.90;;;;;;6131789;19;19937;-71
2022/11/07 00:09:00;;;;;;;2.80;2.47;;;9.40;99.90;;;;;;6130548;19;19915;-71
2022/11/07 00:11:04;;;;;;;3.90;2.70;;;9.10;99.90;;;;;;6130250;19;19945;-71
2022/11/07 00:13:09;;;;;;;2.78;2.00;;;9.50;99.90;;;;;;6128573;19;19942;-71
2022/11/07 00:15:13;;;;;;;3.75;2.78;;;9.30;99.90;;;;;;6129711;19;19923;-70
2022/11/07 00:17:17;;;;;;;3.58;2.90;;;9.60;99.90;;;;;;6129828;19;19923;-71
2022/11/07 00:19:22;;;;;;;5.10;2.75;;;9.70;99.90;;;;;;6130000;19;19941;-72
2022/11/07 00:21:26;;;;;;;5.18;2.83;;;9.60;99.90;;;;;;6129803;19;19958;-70
2022/11/07 00:23:30;;;;;;;4.45;2.85;;;9.40;99.90;;;;;;6130079;19;19923;-70
2022/11/07 00:25:36;;;;;;;6.18;2.97;;;9.80;99.90;;;;;;6129137;19;20474;-71
2022/11/07 00:27:40;;;;;;;3.33;2.95;;;9.60;99.90;;;;;;6129635;19;19938;-71
2022/11/07 00:29:44;;;;;;;3.50;2.40;;;9.80;99.90;;;;;;6129818;19;19914;-71
2022/11/07 00:31:50;;;;;;;5.32;3.28;;;9.60;99.90;;;;;;6128954;19;19919;-71
2022/11/07 00:33:55;;;;;;;5.63;3.10;;;9.50;99.90;;;;;;6129319;19;19922;-71
2022/11/07 00:35:59;;;;;;;8.20;2.88;;;9.80;99.90;;;;;;6129289;19;19950;-71
2022/11/07 00:38:02;;;;;;;5.05;2.58;;;9.20;99.90;;;;;;6129663;19;19938;-70
2022/11/07 00:40:08;;;;;;;4.07;2.47;;;10.10;99.90;;;;;;6129668;19;19935;-70
2022/11/07 00:42:14;;;;;;;6.00;2.53;;;9.30;99.90;;;;;;6129520;19;19919;-70
2022/11/07 00:44:18;;;;;;;5.57;2.50;;;9.60;99.90;;;;;;6131873;19;20030;-71
2022/11/07 00:46:23;;;;;;;4.32;2.20;;;9.70;99.90;;;;;;6131041;19;20256;-71
2022/11/07 00:48:27;;;;;;;3.75;2.25;;;9.60;99.90;;;;;;6129296;19;19926;-70
2022/11/07 00:50:31;;;;;;;6.35;2.45;;;;;;;;;;6128790;19;19929;-71
2022/11/07 00:52:34;;;;;;;10.35;2.92;;;10.20;99.90;;;;;;6129435;19;20283;-70
2022/11/07 00:54:38;;;;;;;5.43;2.20;;;9.90;99.90;;;;;;6130110;19;19926;-71
2022/11/07 00:56:42;;;;;;;5.55;2.72;;;9.90;99.90;;;;;;6129888;19;20340;-70
2022/11/07 00:58:49;;;;;;;4.13;2.25;;;10.00;99.90;;;;;;6129169;19;19915;-70
2022/11/07 01:00:53;;;;;;;3.75;2.08;;;9.40;99.90;;;;;;6130165;19;20340;-71
2022/11/07 01:05:13;;;;;;;3.72;2.33;;;10.30;99.90;;;;;;6127925;19;20477;-70
2022/11/07 01:07:17;;;;;;;5.57;2.88;;;9.90;99.90;;;;;;6131571;19;20593;-71
2022/11/07 01:09:22;;;;;;;4.72;2.75;;;10.20;99.90;;;;;;6128715;19;19915;-71
2022/11/07 01:11:27;;;;;;;4.53;2.88;;;9.80;99.90;;;;;;6130292;19;19911;-69
2022/11/07 01:13:31;;;;;;;4.38;2.40;;;9.90;99.90;;;;;;6127958;19;19930;-70
2022/11/07 01:15:42;;;;;;;5.32;2.60;;;9.80;99.90;;;;;;6129267;19;19953;-70
2022/11/07 01:17:45;;;;;;;8.10;2.33;;;9.90;99.90;;;;;;6128430;19;20332;-70
2022/11/07 01:19:50;;;;;;;9.05;2.58;;;;;;;;;;6129458;19;19910;-72
2022/11/07 01:21:53;;;;;;;5.85;2.30;;;9.90;99.90;;;;;;6130754;19;19918;-72
2022/11/07 01:23:59;;;;;;;9.40;2.40;;;9.70;99.90;;;;;;6127748;19;19918;-71
2022/11/07 01:26:07;;;;;;;6.13;2.88;;;9.70;99.90;;;;;;6128213;19;19930;-72
2022/11/07 01:28:11;;;;;;;7.93;2.47;;;10.20;99.90;;;;;;6128258;19;19922;-72
2022/11/07 01:30:15;;;;;;;6.55;2.65;;;10.00;99.90;;;;;;6128470;19;19923;-72
2022/11/07 01:32:22;;;;;;;5.10;2.60;;;9.80;99.90;;;;;;6127627;19;19930;-73
2022/11/07 01:34:26;;;;;;;9.73;2.63;;;9.80;99.90;;;;;;6128097;19;19921;-74
2022/11/07 01:36:30;;;;;;;5.63;2.67;;;9.70;99.90;;;;;;6127118;19;20394;-72
2022/11/07 01:38:34;;;;;;;5.38;2.17;;;9.80;99.90;;;;;;6128268;19;19941;-72
2022/11/07 01:42:59;;;;;;;6.65;2.95;;;9.80;99.90;;;;;;6127647;19;19910;-72
2022/11/07 01:45:03;;;;;;;11.40;2.63;;;10.40;99.90;;;;;;6129678;19;19923;-72
2022/11/07 01:47:07;;;;;;;5.22;2.63;;;10.00;99.90;;;;;;6130147;19;19918;-71
2022/11/07 01:49:18;;;;;;;3.38;2.30;;;10.10;99.90;;;;;;6128496;19;20379;-72
2022/11/07 01:51:23;;;;;;;6.70;2.35;;;9.80;99.90;;;;;;6129085;19;19922;-72
2022/11/07 01:53:27;;;;;;;5.88;2.33;;;;;;;;;;6128677;19;19926;-70
2022/11/07 01:55:34;;;;;;;4.85;2.90;;;10.40;99.90;;;;;;6126300;19;19922;-72
2022/11/07 01:57:41;;;;;;;6.20;2.33;;;10.00;99.90;;;;;;6130559;19;19946;-72
2022/11/07 01:59:45;;;;;;;9.63;2.60;;;9.80;99.90;;;;;;6127795;19;19945;-72
2022/11/07 02:01:49;;;;;;;2.63;2.00;;;10.30;99.90;;;;;;6128970;19;20304;-71
2022/11/07 02:03:55;;;;;;;4.65;2.50;;;9.90;99.90;;;;;;6128121;19;19949;-72
2022/11/07 02:06:05;;;;;;;5.55;2.58;;;10.10;99.90;;;;;;6127003;19;20348;-71
2022/11/07 02:08:11;;;;;;;5.97;2.42;;;9.90;99.90;;;;;;6126683;19;19926;-71
2022/11/07 02:10:17;;;;;;;8.23;2.30;;;9.80;99.90;;;;;;6127009;19;19911;-71
2022/11/07 02:12:23;;;;;;;7.55;3.08;;;10.10;99.90;;;;;;6127394;19;19920;-72
2022/11/07 02:14:27;;;;;;;4.38;2.03;;;10.40;99.90;;;;;;6126537;19;20265;-72
2022/11/07 02:16:31;;;;;;;6.47;2.42;;;10.50;99.90;;;;;;6127984;19;19977;-72
2022/11/07 02:18:38;;;;;;;3.83;2.38;;;10.20;99.90;;;;;;6126994;19;19926;-71
2022/11/07 02:20:42;;;;;;;2.70;1.95;;;10.20;99.90;;;;;;6126804;19;19915;-72
2022/11/07 02:22:54;;;;;;;5.70;2.22;;;10.50;99.90;;;;;;6125989;19;19919;-71
2022/11/07 02:25:03;;;;;;;6.15;2.35;;;9.30;99.90;;;;;;6128438;19;19946;-72
2022/11/07 02:27:11;;;;;;;7.30;2.45;;;10.40;99.90;;;;;;6129472;19;20033;-71
2022/11/07 02:29:15;;;;;;;5.68;2.20;;;9.90;99.90;;;;;;6126980;19;20452;-71
2022/11/07 02:31:19;;;;;;;7.63;2.20;;;;;;;;;;6127773;19;19923;-71
2022/11/07 02:33:25;;;;;;;9.32;2.83;;;10.50;99.90;;;;;;6127052;19;20355;-71
2022/11/07 02:35:39;;;;;;;5.13;2.15;;;10.20;99.90;;;;;;6125467;19;19914;-71
2022/11/07 02:37:43;;;;;;;4.10;2.13;;;10.20;99.90;;;;;;6126682;19;19942;-71
2022/11/07 02:39:47;;;;;;;6.95;2.17;;;10.70;99.90;;;;;;6126649;19;20379;-72
2022/11/07 02:41:56;;;;;;;6.78;2.40;;;10.40;99.90;;;;;;6130699;19;19922;-72
2022/11/07 02:44:04;;;;;;;6.50;2.00;;;10.30;99.90;;;;;;6126233;19;20340;-72
2022/11/07 02:46:11;;;;;;;5.10;1.98;;;9.90;99.90;;;;;;6125796;19;19954;-71
2022/11/07 02:48:15;;;;;;;7.50;2.28;;;9.80;99.90;;;;;;6127879;19;19949;-73
2022/11/07 02:50:19;;;;;;;5.68;2.42;;;9.70;99.90;;;;;;6125851;19;20451;-71
2022/11/07 02:52:23;;;;;;;4.93;1.92;;;;;;;;;;6129168;19;20276;-71
2022/11/07 02:54:27;;;;;;;6.65;2.20;;;10.50;99.90;;;;;;6126724;19;19926;-72
2022/11/07 02:56:31;;;;;;;10.30;2.80;;;10.30;99.90;;;;;;6126153;19;19942;-71
2022/11/07 02:58:38;;;;;;;4.90;1.80;;;10.10;99.90;;;;;;6125837;19;20284;-73
2022/11/07 03:00:42;;;;;;;7.65;2.17;;;10.10;99.90;;;;;;6126169;19;19914;-72
2022/11/07 03:02:47;;;;;;;7.57;2.47;;;10.00;99.90;;;;;;6125852;19;20361;-72
2022/11/07 03:04:50;;;;;;;6.63;2.15;;;10.30;99.90;;;;;;6127505;19;20257;-72
2022/11/07 03:06:54;;;;;;;7.50;2.17;;;10.30;99.90;;;;;;6128157;19;19923;-71
2022/11/07 03:08:58;;;;;;;5.28;2.65;;;9.80;99.90;;;;;;6126577;19;19923;-72
2022/11/07 03:11:02;;;;;;;4.90;2.30;;;10.50;99.90;;;;;;6126626;19;19922;-72
2022/11/07 03:13:06;;;;;;;5.68;2.75;;;;;;;;;;6125632;19;20336;-71
2022/11/07 03:15:14;;;;;;;4.80;2.47;;;9.80;99.90;;;;;;6126448;19;19922;-72
2022/11/07 03:17:18;;;;;;;5.75;2.40;;;10.20;99.90;;;;;;6127232;19;19938;-71
2022/11/07 03:19:21;;;;;;;4.57;2.38;;;10.20;99.90;;;;;;6125475;19;19918;-72
2022/11/07 03:21:25;;;;;;;5.20;1.98;;;9.60;99.90;;;;;;6125363;19;19926;-71
2022/11/07 03:23:29;;;;;;;10.02;2.17;;;9.60;99.90;;;;;;6125394;19;19919;-72
2022/11/07 03:25:33;;;;;;;6.53;2.03;;;;;;;;;;6124151;19;19917;-72
2022/11/07 03:27:37;;;;;;;7.30;2.20;;;10.10;99.90;;;;;;6124857;19;20299;-71
2022/11/07 03:29:41;;;;;;;4.45;2.28;;;10.50;99.90;;;;;;6124761;19;20280;-71
2022/11/07 03:31:47;;;;;;;10.07;2.38;;;10.30;99.90;;;;;;6124947;19;19946;-72
2022/11/07 03:33:52;;;;;;;3.97;2.75;;;9.80;99.90;;;;;;6125068;19;19937;-72
2022/11/07 03:35:56;;;;;;;9.85;2.83;;;;;;;;;;6124626;19;19918;-72
2022/11/07 03:38:00;;;;;;;9.70;2.40;;;10.60;99.90;;;;;;6125032;19;20248;-72
2022/11/07 03:40:04;;;;;;;5.25;2.33;;;9.80;99.90;;;;;;6124727;19;19942;-71
2022/11/07 03:42:08;;;;;;;6.43;2.97;;;9.80;99.90;;;;;;6124229;19;20005;-71
2022/11/07 03:44:11;;;;;;;6.68;2.55;;;9.60;99.90;;;;;;6126023;19;19938;-71
2022/11/07 03:46:16;;;;;;;7.97;2.28;;;9.80;99.90;;;;;;6124440;19;20256;-71
2022/11/07 03:48:22;;;;;;;6.07;2.38;;;10.40;99.90;;;;;;6128891;19;19937;-72
2022/11/07 03:50:27;;;;;;;6.70;2.25;;;10.10;99.90;;;;;;6130018;19;19926;-72
2022/11/07 03:52:31;;;;;;;4.93;2.17;;;9.70;99.90;;;;;;6130751;19;20336;-72
2022/11/07 03:54:34;;;;;;;5.45;2.70;;;9.90;99.90;;;;;;6130389;19;19941;-72
2022/11/07 03:56:38;;;;;;;5.00;2.03;;;9.80;99.90;;;;;;6130787;19;20252;-72
2022/11/07 03:58:42;;;;;;;7.57;2.60;;;9.50;99.90;;;;;;6130453;19;19918;-71
2022/11/07 04:00:46;;;;;;;8.63;2.80;;;;;;;;;;6129667;19;20308;-71
2022/11/07 04:02:50;;;;;;;4.90;2.70;;;10.30;99.90;;;;;;6130548;19;20307;-71
2022/11/07 04:04:56;;;;;;;8.20;2.55;;;10.10;99.90;;;;;;6130442;19;19911;-71
2022/11/07 04:07:00;;;;;;;8.90;2.67;;;;;;;;;;6131966;19;19922;-71
2022/11/07 04:09:04;;;;;;;6.97;2.40;;;10.00;99.90;;;;;;6130089;19;19922;-72
2022/11/07 04:17:17;;;;;;;8.60;2.92;;;10.20;99.90;;;;;;6132768;19;20344;-72
2022/11/07 04:18:12;;;;;;;10.43;2.63;;;9.70;99.90;;;;;;6127453;19;19934;-72
2022/11/07 04:20:18;;;;;;;9.88;2.28;;;10.00;99.90;;;;;;6133384;19;19923;-72
2022/11/07 04:22:22;;;;;;;5.65;2.50;;;;;;;;;;6129702;19;19941;-72
2022/11/07 04:24:26;;;;;;;5.20;1.98;;;10.00;99.90;;;;;;6128022;19;20011;-71
2022/11/07 04:28:49;;;;;;;7.63;2.60;;;9.70;99.90;;;;;;6124986;19;19918;-71
2022/11/07 04:30:53;;;;;;;5.63;1.95;;;10.50;99.90;;;;;;6129550;19;19919;-72
2022/11/07 04:32:58;;;;;;;4.97;2.38;;;9.70;99.90;;;;;;6129997;19;19993;-71
2022/11/07 04:35:03;;;;;;;5.78;1.80;;;9.60;99.90;;;;;;6131724;19;19914;-72
2022/11/07 04:37:09;;;;;;;11.32;2.83;;;9.90;99.90;;;;;;6128690;19;19941;-72
2022/11/07 04:39:13;;;;;;;6.03;2.17;;;9.90;99.90;;;;;;6129474;19;19937;-72
2022/11/07 04:41:22;;;;;;;9.48;2.40;;;10.20;99.90;;;;;;6130631;19;19928;-72
2022/11/07 04:43:27;;;;;;;6.80;2.42;;;10.20;99.90;;;;;;6130241;19;19922;-72
2022/11/07 04:45:31;;;;;;;7.32;2.38;;;10.20;99.90;;;;;;6129248;19;19933;-71
2022/11/07 04:47:35;;;;;;;7.53;3.40;;;9.90;99.90;;;;;;6129299;19;19926;-72
2022/11/07 04:49:39;;;;;;;8.18;2.33;;;9.90;99.90;;;;;;6131737;19;20327;-71
2022/11/07 04:51:43;;;;;;;5.68;2.75;;;9.50;99.90;;;;;;6131123;19;19918;-72
2022/11/07 04:53:50;;;;;;;7.40;2.13;;;10.00;99.90;;;;;;6128670;19;19926;-71
2022/11/07 04:55:54;;;;;;;8.18;1.98;;;9.70;99.90;;;;;;6128148;19;19933;-71
2022/11/07 04:57:58;;;;;;;9.35;2.45;;;9.60;99.90;;;;;;6129899;19;19957;-72
2022/11/07 05:00:03;;;;;;;7.07;2.42;;;9.80;99.90;;;;;;6126488;19;19910;-72
2022/11/07 05:02:07;;;;;;;6.68;2.17;;;9.60;99.90;;;;;;6132800;19;19910;-72
2022/11/07 05:04:11;;;;;;;4.53;2.15;;;9.80;99.90;;;;;;6129732;19;19914;-72
2022/11/07 05:06:17;;;;;;;6.03;2.00;;;9.40;99.90;;;;;;6130012;19;19918;-72
2022/11/07 05:08:21;;;;;;;7.85;2.30;;;9.40;99.90;;;;;;6128085;19;19910;-72
2022/11/07 05:10:31;;;;;;;7.45;2.08;;;9.70;99.90;;;;;;6127455;19;19931;-72
2022/11/07 05:12:35;;;;;;;6.45;2.33;;;10.00;99.90;;;;;;6128997;19;19914;-72
2022/11/07 05:14:39;;;;;;;10.88;2.63;;;9.70;99.90;;;;;;6130493;19;19946;-72
2022/11/07 05:16:44;;;;;;;5.88;2.20;;;10.00;99.90;;;;;;6128342;19;20311;-72
2022/11/07 05:18:48;;;;;;;4.53;2.33;;;9.70;99.90;;;;;;6128562;19;19935;-71
2022/11/07 05:20:52;;;;;;;8.93;2.88;;;10.20;99.90;;;;;;6127141;19;19945;-72
2022/11/07 05:25:13;;;;;;;7.03;2.03;;;10.00;99.90;;;;;;6127930;19;20249;-72
2022/11/07 05:27:22;;;;;;;5.72;2.30;;;9.80;99.90;;;;;;6128048;19;20291;-71
2022/11/07 05:29:25;;;;;;;;;;;10.10;99.90;;;;;;6130690;19;19918;-72
2022/11/07 05:31:29;;;;;;;3.67;1.73;;;9.40;99.90;;;;;;6129695;19;19950;-72
2022/11/07 05:33:34;;;;;;;9.90;2.72;;;10.40;99.90;;;;;;6129449;19;19923;-72
2022/11/07 05:35:39;;;;;;;9.48;2.38;;;9.70;99.90;;;;;;6129313;19;19929;-71
2022/11/07 05:37:43;;;;;;;10.02;2.17;;;;;;;;;;6125464;19;19915;-72
2022/11/07 05:39:47;;;;;;;7.50;1.92;;;10.40;99.90;;;;;;6128278;19;19911;-71
2022/11/07 05:41:51;;;;;;;10.02;3.22;;;10.20;99.90;;;;;;6128451;19;19950;-72
2022/11/07 05:43:57;;;;;;;5.35;2.47;;;10.00;99.90;;;;;;6130208;19;19970;-71
2022/11/07 05:46:02;;;;;;;13.18;2.60;;;10.40;99.90;;;;;;6127990;19;19919;-72
2022/11/07 05:48:08;;;;;;;6.95;2.63;;;10.00;99.90;;;;;;6130946;19;19918;-71
2022/11/07 05:50:12;;;;;;;7.07;2.60;;;10.20;99.90;;;;;;6127784;19;19919;-71
2022/11/07 05:52:16;;;;;;;10.68;2.65;;;10.00;99.90;;;;;;6127573;19;19922;-72
2022/11/07 05:54:20;;;;;;;6.53;2.28;;;10.20;99.90;;;;;;6128990;19;19933;-72
2022/11/07 05:56:23;;;;;;;7.05;2.78;;;10.40;99.90;;;;;;6127831;19;19982;-71
2022/11/07 05:58:28;;;;;;;13.82;3.65;;;;;;;;;;6126178;19;19919;-72
2022/11/07 06:00:34;;;;;;;4.63;2.42;;;9.90;99.90;;;;;;6129733;19;20267;-72
2022/11/07 06:02:38;;;;;;;7.93;2.70;;;9.60;99.90;;;;;;6127950;19;19921;-72
2022/11/07 06:04:42;;;;;;;8.57;2.53;;;9.80;99.90;;;;;;6127885;19;19942;-71
2022/11/07 06:06:46;;;;;;;8.73;2.50;;;9.80;99.90;;;;;;6127073;19;19993;-72
2022/11/07 06:08:56;;;;;;;4.90;2.63;;;;;;;;;;6127387;19;19986;-72
2022/11/07 06:11:00;;;;;;;7.38;2.78;;;9.90;99.90;;;;;;6126073;19;20343;-71
2022/11/07 06:13:06;;;;;;;8.80;2.72;;;10.00;99.90;;;;;;6128221;19;20424;-71
2022/11/07 06:15:11;;;;;;;7.97;2.33;;;10.20;99.90;;;;;;6127511;19;19914;-71
2022/11/07 06:17:17;;;;;;;8.98;2.90;;;10.10;99.90;;;;;;6127787;19;19921;-71
2022/11/07 06:19:21;;;;;;;9.95;3.38;;;10.20;99.90;;;;;;6127276;19;19919;-73
2022/11/07 06:21:25;;;;;;;10.65;2.28;;;10.20;99.90;;;;;;6127990;19;20340;-72
2022/11/07 06:23:29;;;;;;;7.00;2.50;;;10.20;99.90;;;;;;6127785;19;19936;-72
2022/11/07 06:25:33;;;;;;;5.97;2.72;;;9.80;99.90;;;;;;6124724;19;19986;-72
2022/11/07 06:27:37;;;;;;;8.23;2.92;;;10.10;99.90;;;;;;6125246;19;19945;-72
2022/11/07 06:29:41;;;;;;;6.57;2.63;;;;;;;;;;6119517;19;19919;-72
2022/11/07 06:31:45;;;;;;;7.10;2.28;;;9.90;99.90;;;;;;6117055;19;20394;-72
2022/11/07 06:33:53;;;;;;;10.38;2.88;;;10.10;99.90;;;;;;6117637;19;19982;-71
2022/11/07 06:36:06;;;;;;;6.30;2.30;;;10.20;99.90;;;;;;6115920;19;20384;-72
2022/11/07 06:38:11;;;;;;;8.77;2.90;;;10.40;99.90;;;;;;6117190;19;19925;-73
2022/11/07 06:40:15;;;;;;;4.53;2.58;;;10.10;99.90;;;;;;6116826;19;19926;-72
2022/11/07 06:42:19;;;;;;;7.82;2.70;;;10.60;99.90;;;;;;6117776;19;20625;-80
2022/11/07 06:44:23;;;;;;;6.45;2.78;;;10.00;99.90;;;;;;6118282;19;19922;-79
2022/11/07 06:46:27;;;;;;;6.68;2.83;;;10.30;99.90;;;;;;6119259;19;19935;-78
2022/11/07 06:48:31;;;;;;;6.50;2.28;;;10.10;99.90;;;;;;6118421;19;19941;-78
2022/11/07 06:50:38;;;;;;;9.10;2.67;;;10.10;99.90;;;;;;6125859;19;19922;-79
2022/11/07 06:52:41;;;;;;;5.22;2.47;;;10.30;99.90;;;;;;6128486;19;19945;-76
2022/11/07 06:54:45;;;;;;;7.30;2.90;;;10.30;99.90;;;;;;6126268;19;19919;-79
2022/11/07 06:56:49;;;;;;;8.25;2.67;;;10.50;99.90;;;;;;6126609;19;19957;-79
2022/11/07 06:58:53;;;;;;;11.45;2.95;;;10.10;99.90;;;;;;6125890;19;20259;-82
2022/11/07 07:01:01;;;;;;;7.70;2.20;;;9.80;99.90;;;;;;6127090;19;19910;-80
2022/11/07 07:03:06;;;;;;;6.60;2.30;;;9.80;99.90;;;;;;6126426;19;19923;-79
2022/11/07 07:05:10;;;;;;;9.02;2.88;;;10.30;99.90;;;;;;6126219;19;19933;-78
2022/11/07 07:07:17;;;;;;;6.15;2.85;;;9.70;99.90;;;;;;6128620;19;19923;-78
2022/11/07 07:09:20;;;;;;;8.20;2.42;;;10.30;99.90;;;;;;6129268;19;19941;-78
2022/11/07 07:11:24;;;;;;;6.95;2.35;;;9.80;99.90;;;;;;6125904;19;19933;-78
2022/11/07 07:13:28;;;;;;;7.57;2.47;;;9.90;99.90;;;;;;6125856;19;19915;-72
2022/11/07 07:15:32;;;;;;;3.50;2.17;;;10.60;99.90;;;;;;6123345;19;19922;-71
2022/11/07 07:17:36;;;;;;;8.43;2.97;;;;;;;;;;6122786;19;19926;-71
2022/11/07 07:19:40;;;;;;;5.97;2.53;;;10.10;99.90;;;;;;6126458;19;19922;-70
2022/11/07 07:21:44;;;;;;;7.55;2.47;;;10.10;99.90;;;;;;6126452;19;19923;-71
2022/11/07 07:23:50;;;;;;;7.43;2.42;;;10.30;99.90;;;;;;6126955;19;20339;-71
2022/11/07 07:25:54;;;;;;;6.35;2.45;;;10.30;99.90;;;;;;6130165;19;19965;-71
2022/11/07 07:27:58;;;;;;;8.48;2.90;;;;;;;;;;6131079;19;19918;-70
2022/11/07 07:30:02;;;;;;;7.15;2.90;;;10.50;99.90;;;;;;6131056;19;20383;-71
2022/11/07 07:32:06;;;;;;;6.68;3.00;;;9.90;99.90;;;;;;6130958;19;20378;-70
2022/11/07 07:34:10;;;;;;;6.43;2.65;;;10.00;99.90;;;;;;6131070;19;20271;-70
2022/11/07 07:36:15;;;;;;;5.90;3.00;;;9.90;99.90;;;;;;6130656;19;20374;-70
2022/11/07 07:38:19;;;;;;;12.60;3.30;;;9.80;99.90;;;;;;6128960;19;19922;-71
2022/11/07 07:40:25;;;;;;;9.30;3.70;;;9.90;99.90;;;;;;6130356;19;19923;-71
2022/11/07 07:42:30;;;;;;;10.82;3.85;;;;;;;;;;6129948;19;19953;-71
2022/11/07 07:44:34;;;;;;;10.57;4.53;;;10.40;99.90;;;;;;6129738;19;19927;-71
2022/11/07 07:46:39;;;;;;;10.00;3.40;;;;;;;;;;6129184;19;19927;-71
2022/11/07 07:48:43;;;;;;;9.23;3.70;;;10.50;99.90;;;;;;6129332;19;20257;-71
2022/11/07 07:50:49;;;;;;;11.70;3.75;;;10.00;99.90;;;;;;6130362;19;19919;-71
2022/11/07 07:52:57;;;;;;;9.07;3.58;;;10.00;99.90;;;;;;6130845;19;20339;-71
2022/11/07 07:55:01;;;;;;;8.55;3.75;;;10.30;99.90;;;;;;6130128;19;19922;-71
2022/11/07 07:57:08;;;;;;;11.63;3.90;;;10.30;99.90;;;;;;6130432;19;19911;-71
2022/11/07 07:59:12;;;;;;;7.03;3.05;;;;;;;;;;6128827;19;19914;-71
2022/11/07 08:01:16;;;;;;;10.73;3.45;;;10.00;99.90;;;;;;6130377;19;19919;-71
2022/11/07 08:03:20;;;;;;;13.73;4.22;;;10.30;99.90;;;;;;6130194;19;19915;-70
2022/11/07 08:05:24;;;;;;;8.70;3.60;;;10.00;99.90;;;;;;6129803;19;20482;-70
2022/11/07 08:07:28;;;;;;;10.73;4.22;;;;;;;;;;6128556;19;19915;-70
2022/11/07 08:09:35;;;;;;;16.48;3.72;;;9.80;99.90;;;;;;6131937;19;19926;-70
2022/11/07 08:11:39;;;;;;;13.93;3.67;;;;;;;;;;6129757;19;19918;-70
2022/11/07 08:13:45;;;;;;;10.68;2.97;;;10.20;99.90;;;;;;6129430;19;19946;-70
2022/11/07 08:15:49;;;;;;;9.73;3.08;;;9.90;99.90;;;;;;6129632;19;20395;-70
2022/11/07 08:17:53;;;;;;;9.48;3.15;;;;;;;;;;6130009;19;19938;-70
2022/11/07 08:19:58;;;;;;;12.38;3.13;;;;;;;;;;6129857;19;19944;-70
2022/11/07 08:22:02;;;;;;;8.32;3.47;;;;;;;;;;6129953;19;19919;-70
2022/11/07 08:24:06;;;;;;;11.25;3.03;;;10.70;99.90;;;;;;6129697;19;19926;-70
2022/11/07 08:26:10;;;;;;;12.10;3.30;;;9.90;99.90;;;;;;6129287;19;19915;-71
2022/11/07 08:28:14;;;;;;;7.78;3.17;;;10.40;99.90;;;;;;6129459;19;19922;-71
2022/11/07 08:30:20;;;;;;;12.63;3.38;;;10.30;99.90;;;;;;6129508;19;19919;-71
2022/11/07 08:32:24;;;;;;;10.32;2.78;;;;;;;;;;6128205;19;19926;-71
2022/11/07 08:34:28;;;;;;;9.50;3.50;;;10.10;99.90;;;;;;6127779;19;19926;-70
2022/11/07 08:36:33;;;;;;;7.30;2.97;;;10.20;99.90;;;;;;6129519;19;20339;-71
2022/11/07 08:38:38;;;;;;;11.50;2.95;;;10.10;99.90;;;;;;6128611;19;19930;-70
2022/11/07 08:40:42;;;;;;;5.50;2.63;;;;;;;;;;6129789;19;20338;-70
2022/11/07 08:42:45;;;;;;;6.68;2.80;;;9.90;99.90;;;;;;6128654;19;19934;-70
2022/11/07 08:44:49;;;;;;;8.95;3.20;;;10.30;99.90;;;;;;6129301;19;19918;-71
2022/11/07 08:46:56;;;;;;;15.75;3.08;;;10.00;99.90;;;;;;6130573;19;19923;-71
2022/11/07 08:49:00;;;;;;;12.88;3.42;;;;;;;;;;6127729;19;19923;-70
2022/11/07 08:51:04;;;;;;;9.07;2.70;;;10.20;99.90;;;;;;6127811;19;19923;-71
2022/11/07 08:53:08;;;;;;;11.15;2.97;;;10.10;99.90;;;;;;6128770;19;19946;-70
2022/11/07 08:55:12;;;;;;;10.82;3.13;;;10.60;99.90;;;;;;6128618;19;20347;-70
2022/11/07 08:57:16;;;;;;;12.15;3.17;;;;;;;;;;6126558;19;20321;-70
2022/11/07 08:59:21;;;;;;;7.57;2.88;;;10.90;99.90;;;;;;6127639;19;19914;-70
2022/11/07 09:01:25;;;;;;;6.70;2.45;;;10.70;99.90;;;;;;6128888;19;19914;-70
2022/11/07 09:03:32;;;;;;;11.40;2.70;;;10.70;99.90;;;;;;6128905;19;20279;-70
2022/11/07 09:05:36;;;;;;;13.48;2.63;;;;;;;;;;6127868;19;19937;-70
2022/11/07 09:07:40;;;;;;;11.95;2.58;;;10.60;99.90;;;;;;6132705;19;20297;-72
2022/11/07 09:09:45;;;;;;;10.57;2.72;;;;;;;;;;6128917;19;19935;-70
2022/11/07 09:11:48;;;;;;;11.55;2.63;;;10.70;99.90;;;;;;6128786;19;20287;-70
2022/11/07 09:13:54;;;;;;;6.97;2.40;;;10.70;99.90;;;;;;6127974;19;19918;-70
2022/11/07 09:15:59;;;;;;;6.43;2.50;;;10.70;99.90;;;;;;6128265;19;19914;-70
2022/11/07 09:18:05;;;;;;;6.82;2.08;;;10.60;99.90;;;;;;6128276;19;20260;-70
2022/11/07 09:20:12;;;;;;;10.82;2.85;;;10.90;99.90;;;;;;6128311;19;19926;-71
2022/11/07 09:22:16;;;;;;;9.38;2.53;;;;;;;;;;6127178;19;19922;-71
2022/11/07 09:24:21;;;;;;;8.00;2.03;;;10.90;99.90;;;;;;6128188;19;19929;-71
2022/11/07 09:26:24;;;;;;;6.72;1.95;;;10.90;99.90;;;;;;6128855;19;19918;-70
2022/11/07 09:28:28;;;;;;;13.90;3.03;;;11.00;99.90;;;;;;6128291;19;20336;-71
2022/11/07 09:30:32;;;;;;;7.95;2.28;;;11.30;99.90;;;;;;6128658;19;19949;-71
2022/11/07 09:32:36;;;;;;;9.63;2.72;;;10.70;99.90;;;;;;6128195;19;19919;-71
2022/11/07 09:34:43;;;;;;;7.75;2.95;;;10.60;99.90;;;;;;6128056;19;19914;-71
2022/11/07 09:36:50;;;;;;;6.45;2.35;;;10.90;99.90;;;;;;6128002;19;20279;-71
2022/11/07 09:38:55;;;;;;;11.40;2.83;;;10.70;99.90;;;;;;6127754;19;20339;-71
2022/11/07 09:41:07;;;;;;;8.20;2.42;;;11.00;99.90;;;;;;6127211;19;20434;-72
2022/11/07 09:43:38;;;;;;;8.63;2.83;;;11.20;99.90;;;;;;6126611;19;19942;-71
2022/11/07 09:45:52;;;;;;;10.13;2.97;;;10.70;99.90;;;;;;6124367;19;19922;-71
2022/11/07 09:48:01;;;;;;;7.28;2.42;;;11.10;99.90;;;;;;6126913;19;19921;-71
2022/11/07 09:50:13;;;;;;;9.65;2.63;;;11.10;99.90;;;;;;6128990;19;19925;-71
2022/11/07 09:52:24;;;;;;;6.30;2.55;;;10.70;99.90;;;;;;6128089;19;19915;-71
2022/11/07 09:54:33;;;;;;;9.02;2.13;;;11.50;99.90;;;;;;6126585;19;19911;-71
2022/11/07 09:56:37;;;;;;;8.50;3.13;;;11.10;99.90;;;;;;6127873;19;19925;-72
2022/11/07 09:58:44;;;;;;;10.27;1.85;;;11.10;99.90;;;;;;6125424;19;19926;-71
2022/11/07 10:00:48;;;;;;;10.93;2.20;;;11.10;99.90;;;;;;6125828;19;20244;-70
2022/11/07 10:02:56;;;;;;;7.00;2.35;;;11.00;99.90;;;;;;6128025;19;19919;-70
2022/11/07 10:05:03;;;;;;;11.32;2.28;;;11.00;99.90;;;;;;6127014;19;19926;-70
2022/11/07 10:07:14;;;;;;;13.05;2.47;;;10.90;99.90;;;;;;6127607;19;19945;-70
2022/11/07 10:09:28;;;;;;;6.65;2.38;;;11.30;99.90;;;;;;6128238;19;19932;-70
2022/11/07 10:11:37;;;;;;;6.50;2.33;;;11.20;99.90;;;;;;6128796;19;19918;-70
2022/11/07 10:14:01;;;;;;;5.90;2.15;;;11.20;99.90;;;;;;6127039;19;20032;-70
2022/11/07 10:16:10;;;;;;;5.80;2.88;;;11.20;99.90;;;;;;6127922;19;19927;-70
2022/11/07 10:18:27;;;;;;;9.68;2.72;;;10.90;99.90;;;;;;6128981;19;19918;-70
2022/11/07 10:20:42;;;;;;;8.70;2.17;;;10.90;99.90;;;;;;6127800;19;19953;-70
2022/11/07 10:23:00;;;;;;;8.98;2.50;;;11.30;99.90;;;;;;6126786;19;19918;-71
2022/11/07 10:25:20;;;;;;;13.07;3.08;;;11.00;99.90;;;;;;6126512;19;19915;-70
2022/11/07 10:27:24;;;;;;;4.65;1.90;;;;;;;;;;6128093;19;19925;-70
2022/11/07 10:29:36;;;;;;;8.90;2.95;;;11.80;99.90;;;;;;6126135;19;19923;-71
2022/11/07 10:31:44;;;;;;;6.95;1.98;;;11.50;99.90;;;;;;6126228;19;19915;-70
2022/11/07 10:33:53;;;;;;;6.93;2.25;;;11.10;99.90;;;;;;6125174;19;20283;-70
2022/11/07 10:36:03;;;;;;;5.93;2.40;;;11.60;99.90;;;;;;6129737;19;19957;-70
2022/11/07 10:38:19;;;;;;;7.10;2.65;;;11.20;99.90;;;;;;6126160;19;19914;-70
2022/11/07 10:40:29;;;;;;;9.70;2.40;;;11.30;99.90;;;;;;6125774;19;19934;-70
2022/11/07 10:42:34;;;;;;;5.13;2.28;;;11.10;99.90;;;;;;6128378;19;19934;-70
2022/11/07 10:44:40;;;;;;;7.43;2.00;;;11.40;99.90;;;;;;6126635;19;19914;-70
2022/11/07 10:46:45;;;;;;;8.13;2.17;;;11.60;99.90;;;;;;6126191;19;19914;-71
2022/11/07 10:48:57;;;;;;;11.05;2.75;;;11.60;99.90;;;;;;6124851;19;19930;-71
2022/11/07 10:51:01;;;;;;;7.60;2.17;;;11.30;99.90;;;;;;6127235;19;19922;-71
2022/11/07 10:53:09;;;;;;;7.68;2.35;;;11.70;99.90;;;;;;6127186;19;19922;-71
2022/11/07 10:55:17;;;;;;;6.05;2.17;;;11.70;99.90;;;;;;6126855;19;20328;-70
2022/11/07 10:57:27;;;;;;;6.50;2.47;;;11.40;99.90;;;;;;6131415;19;19927;-70
2022/11/07 10:59:32;;;;;;;8.68;2.67;;;11.10;99.90;;;;;;6130386;19;19942;-71
2022/11/07 11:01:36;;;;;;;6.00;2.08;;;;;;;;;;6130102;19;19946;-70
2022/11/07 11:03:43;;;;;;;9.73;2.97;;;11.60;99.90;;;;;;6129987;19;20388;-69
2022/11/07 11:05:47;;;;;;;8.20;2.55;;;11.60;99.90;;;;;;6129211;19;19911;-73
2022/11/07 11:07:51;;;;;;;7.80;2.40;;;12.00;99.90;;;;;;6134144;19;19922;-74
2022/11/07 11:09:57;;;;;;;6.70;2.20;;;11.60;99.90;;;;;;6132480;19;19906;-76
2022/11/07 11:12:06;;;;;;;6.75;1.88;;;11.50;99.90;;;;;;6135431;19;19923;-82
2022/11/07 11:14:16;;;;;;;8.55;2.20;;;11.60;99.90;;;;;;6136937;19;19917;-77
2022/11/07 11:16:28;;;;;;;12.55;2.22;;;11.60;99.90;;;;;;6132686;19;19925;-81
2022/11/07 11:18:32;;;;;;;5.93;2.40;;;11.70;99.90;;;;;;6133862;19;19921;-83